Time;durP1;ratioP1;P1;durP2;ratioP2;P2;SDS_P1;SDS_P2;PMS_P1;PMS_P2;Temp;Humidity;BMP_temperature;BMP_pressure;BME280_temperature;BME280_humidity;BME280_pressure;Samples;Min_cycle;Max_cycle;Signal;HPM_P1;HPM_P2
2022/01/16 00:04:08;;;;;;;;;62.25;48.50;;;;;0.77;84.37;102102.94;4997538;28;46140;-81
2022/01/16 00:06:35;;;;;;;;;64.50;50.50;;;;;0.93;84.23;102134.41;4990083;28;45301;-81
2022/01/16 00:09:00;;;;;;;;;51.00;41.50;;;;;1.03;84.70;102138.28;4993500;28;45341;-81
2022/01/16 00:11:27;;;;;;;;;63.50;51.50;;;;;0.86;84.59;102086.72;4991929;28;47005;-81
2022/01/16 00:13:56;;;;;;;;;66.25;55.00;;;;;1.10;84.27;102126.56;4987201;28;47977;-81
2022/01/16 00:16:22;;;;;;;;;72.75;56.00;;;;;1.13;84.90;102128.16;4989982;28;45203;-79
2022/01/16 00:18:52;;;;;;;;;68.00;55.25;;;;;1.11;83.95;102149.19;5002284;28;45455;-80
2022/01/16 00:21:25;;;;;;;;;65.25;52.75;;;;;1.12;83.74;102147.44;4998880;28;45429;-81
2022/01/16 00:23:52;;;;;;;;;60.75;50.25;;;;;1.10;84.46;102125.69;4996869;28;48592;-81
2022/01/16 00:26:19;;;;;;;;;65.75;51.75;;;;;1.03;84.33;102114.69;4984459;28;45662;-81
2022/01/16 00:28:45;;;;;;;;;68.00;53.25;;;;;1.13;83.89;102141.25;4997256;28;45238;-81
2022/01/16 00:31:11;;;;;;;;;31.75;23.00;;;;;1.08;83.75;102133.63;5001577;28;45271;-79
2022/01/16 00:33:39;;;;;;;;;65.50;50.25;;;;;1.21;83.88;102160.06;5007160;28;47081;-81
2022/01/16 00:36:06;;;;;;;;;63.50;52.25;;;;;1.21;83.60;102164.44;4996789;28;45348;-81
2022/01/16 00:38:32;;;;;;;;;66.25;50.50;;;;;1.30;83.48;102177.09;4991305;28;45408;-80
2022/01/16 00:40:58;;;;;;;;;61.50;49.75;;;;;1.26;83.58;102133.66;4989949;28;47340;-80
2022/01/16 00:43:23;;;;;;;;;59.75;50.25;;;;;1.26;83.67;102112.69;4999964;28;48568;-79
2022/01/16 00:45:48;;;;;;;;;63.75;51.25;;;;;1.20;83.56;102105.13;5016850;28;45393;-81
2022/01/16 00:48:14;;;;;;;;;60.00;48.50;;;;;1.43;83.27;102130.13;5002200;28;45346;-81
2022/01/16 00:50:39;;;;;;;;;58.50;50.00;;;;;1.35;82.78;102155.91;5001554;28;45308;-81
2022/01/16 00:53:04;;;;;;;;;60.75;48.00;;;;;1.32;82.84;102156.88;5001200;28;45409;-81
2022/01/16 00:55:32;;;;;;;;;65.50;53.50;;;;;1.22;82.83;102158.28;5001692;28;45354;-81
2022/01/16 00:57:58;;;;;;;;;64.00;51.50;;;;;1.03;83.07;102119.94;4996599;28;45373;-81
2022/01/16 01:00:23;;;;;;;;;68.50;52.00;;;;;1.20;82.82;102157.53;4989360;28;45922;-81
2022/01/16 01:02:48;;;;;;;;;56.00;46.25;;;;;1.25;83.06;102208.75;5001016;28;45307;-80
2022/01/16 01:05:14;;;;;;;;;56.50;47.00;;;;;1.26;83.12;102199.13;4993544;28;45290;-81
2022/01/16 01:07:40;;;;;;;;;67.25;51.50;;;;;1.31;83.26;102228.56;4987276;28;45507;-79
2022/01/16 01:10:07;;;;;;;;;64.25;51.00;;;;;1.32;82.93;102211.06;4994617;28;47294;-80
2022/01/16 01:12:52;;;;;;;;;58.50;47.50;;;;;1.25;83.09;102234.94;5000409;28;46523;-81
2022/01/16 01:15:21;;;;;;;;;51.75;43.75;;;;;1.24;83.15;102186.09;5000999;28;45260;-81
2022/01/16 01:17:47;;;;;;;;;54.50;47.00;;;;;1.24;82.90;102206.22;5005190;28;45366;-80
2022/01/16 01:20:18;;;;;;;;;62.75;51.25;;;;;1.26;82.51;102210.44;5000997;28;45135;-80
2022/01/16 01:22:45;;;;;;;;;57.00;48.00;;;;;1.15;82.54;102146.41;4997534;28;47178;-80
2022/01/16 01:25:13;;;;;;;;;59.75;48.50;;;;;1.22;82.83;102129.47;4999991;28;45291;-82
2022/01/16 01:27:41;;;;;;;;;61.00;50.50;;;;;1.23;82.75;102137.25;5000625;28;45391;-81
2022/01/16 01:30:09;;;;;;;;;63.75;50.25;;;;;1.11;83.09;102103.84;4989195;28;45490;-81
2022/01/16 01:32:37;;;;;;;;;59.25;42.75;;;;;1.17;82.66;102100.88;4989101;28;48190;-80
2022/01/16 01:35:05;;;;;;;;;63.75;51.75;;;;;1.20;82.52;102118.22;5000563;28;45388;-80
2022/01/16 01:37:31;;;;;;;;;58.75;49.50;;;;;1.16;82.92;102146.34;4987809;28;45578;-80
2022/01/16 01:39:56;;;;;;;;;65.25;51.25;;;;;1.06;82.62;102145.97;5014552;28;46194;-81
2022/01/16 01:42:23;;;;;;;;;58.25;49.00;;;;;0.71;82.75;102109.28;4999980;28;46194;-81
2022/01/16 01:53:01;;;;;;;;;58.75;47.00;;;;;1.03;82.40;102174.94;4997534;28;47679;-80
2022/01/16 01:55:27;;;;;;;;;56.75;48.00;;;;;1.06;83.16;102182.63;5000586;28;45225;-81
2022/01/16 01:57:53;;;;;;;;;63.50;52.00;;;;;0.95;82.55;102159.59;5000200;28;45510;-81
2022/01/16 02:00:20;;;;;;;;;62.50;51.75;;;;;1.04;82.63;102186.25;5000347;28;45597;-79
2022/01/16 02:05:24;;;;;;;;;69.50;52.75;;;;;1.02;82.88;102230.84;5000223;28;45287;-81
2022/01/16 02:07:50;;;;;;;;;63.50;50.50;;;;;1.04;83.46;102230.78;5000166;28;46089;-81
2022/01/16 02:10:15;;;;;;;;;62.75;50.00;;;;;1.12;83.42;102232.09;4990025;28;46138;-81
2022/01/16 02:12:44;;;;;;;;;66.50;53.25;;;;;1.06;82.61;102227.16;4999826;28;45386;-81
2022/01/16 02:27:59;;;;;;;;;65.50;51.50;;;;;1.26;82.55;102260.22;4999913;28;45401;-82
2022/01/16 02:29:42;;;;;;;;;58.00;47.25;;;;;1.21;82.55;102253.50;4969375;28;45350;-81
2022/01/16 02:37:01;;;;;;;;;69.75;55.25;;;;;1.22;82.02;102260.44;4980610;28;45243;-81
2022/01/16 02:39:28;;;;;;;;;68.25;52.50;;;;;1.28;83.05;102260.13;4956770;28;45340;-79
2022/01/16 02:41:55;;;;;;;;;61.25;50.25;;;;;1.28;82.65;102251.44;4962133;28;46918;-81
2022/01/16 02:46:46;;;;;;;;;59.50;48.00;;;;;1.24;82.68;102235.88;4979818;28;45544;-81
2022/01/16 02:49:24;;;;;;;;;61.25;48.00;;;;;1.34;82.63;102220.53;4980012;28;45535;-81
2022/01/16 02:51:59;;;;;;;;;60.25;48.00;;;;;0.96;82.09;102147.34;4954318;28;46482;-80
2022/01/16 02:54:26;;;;;;;;;57.25;47.50;;;;;1.47;81.69;102227.78;4979658;28;46521;-81
2022/01/16 02:56:51;;;;;;;;;60.50;51.25;;;;;1.40;82.26;102205.44;4961807;28;45251;-80
2022/01/16 02:59:17;;;;;;;;;57.25;46.75;;;;;1.36;82.34;102215.22;4980409;28;45669;-81
2022/01/16 03:01:44;;;;;;;;;58.50;43.75;;;;;1.55;82.57;102227.41;4979633;28;45530;-81
2022/01/16 03:04:10;;;;;;;;;61.50;47.75;;;;;1.46;82.31;102220.84;4979471;28;45390;-81
2022/01/16 03:06:36;;;;;;;;;52.75;44.00;;;;;1.54;82.30;102216.06;4979280;28;45381;-81
2022/01/16 03:09:05;;;;;;;;;62.00;49.00;;;;;1.63;81.70;102220.84;4974261;28;45448;-81
2022/01/16 03:11:35;;;;;;;;;58.50;48.25;;;;;1.59;82.85;102210.59;4979185;28;45599;-81
2022/01/16 03:14:05;;;;;;;;;58.75;48.25;;;;;1.51;82.50;102185.63;4978972;28;45408;-81
2022/01/16 03:16:31;;;;;;;;;54.50;46.00;;;;;1.73;82.68;102217.72;4969393;28;45561;-81
2022/01/16 03:21:57;;;;;;;;;60.75;48.00;;;;;1.61;81.80;102209.59;4999383;28;45269;-81
2022/01/16 03:24:26;;;;;;;;;64.75;50.75;;;;;1.66;81.68;102219.84;4999408;28;45921;-80
2022/01/16 03:27:01;;;;;;;;;56.25;45.00;;;;;1.37;81.40;102180.22;4999473;28;45190;-81
2022/01/16 03:29:27;;;;;;;;;57.50;44.25;;;;;1.63;82.54;102220.84;4999971;28;45277;-81
2022/01/16 03:31:54;;;;;;;;;59.75;48.25;;;;;1.60;81.57;102207.03;4998362;28;47288;-81
2022/01/16 03:34:19;;;;;;;;;57.50;47.25;;;;;1.54;81.26;102195.09;4999462;28;45322;-81
2022/01/16 03:36:45;;;;;;;;;61.25;49.50;;;;;1.55;82.10;102199.41;4998378;28;45306;-81
2022/01/16 03:39:11;;;;;;;;;57.50;48.75;;;;;1.51;81.80;102196.13;4999790;28;45316;-81
2022/01/16 03:41:37;;;;;;;;;61.25;48.75;;;;;1.55;81.30;102206.44;4998043;28;47089;-81
2022/01/16 03:44:04;;;;;;;;;63.50;48.25;;;;;1.37;81.71;102165.38;4999595;28;45406;-81
2022/01/16 03:46:35;;;;;;;;;63.25;49.00;;;;;1.50;82.03;102209.28;4999569;28;45228;-81
2022/01/16 03:49:02;;;;;;;;;60.00;48.00;;;;;1.51;82.12;102205.75;4998338;28;45281;-81
2022/01/16 03:51:28;;;;;;;;;60.50;48.75;;;;;1.45;81.67;102192.94;4997984;28;46224;-80
2022/01/16 03:53:53;;;;;;;;;55.75;46.00;;;;;1.33;82.09;102176.06;4997987;28;47344;-81
2022/01/16 03:56:19;;;;;;;;;61.50;49.75;;;;;1.22;81.79;102158.28;4999425;28;45302;-80
2022/01/16 03:58:44;;;;;;;;;52.00;42.25;;;;;1.02;81.67;102141.81;4999477;28;45198;-81
2022/01/16 04:01:10;;;;;;;;;56.00;46.50;;;;;1.40;82.25;102205.44;4999423;28;45201;-81
2022/01/16 04:03:35;;;;;;;;;57.75;45.75;;;;;1.28;81.86;102178.94;5002267;28;45916;-81
2022/01/16 04:06:01;;;;;;;;;60.00;49.00;;;;;1.36;82.12;102197.75;5002951;28;45274;-81
2022/01/16 04:08:27;;;;;;;;;62.50;46.00;;;;;1.38;82.25;102193.25;5001578;28;45292;-80
2022/01/16 04:10:53;;;;;;;;;55.25;46.00;;;;;1.27;82.57;102190.34;5002738;28;45233;-80
2022/01/16 04:13:20;;;;;;;;;60.75;50.25;;;;;1.33;82.22;102212.75;5002594;28;45254;-81
2022/01/16 04:15:45;;;;;;;;;56.75;46.00;;;;;1.40;81.99;102216.75;5002769;28;45427;-81
2022/01/16 04:18:11;;;;;;;;;56.50;45.25;;;;;1.40;82.34;102235.09;5001139;28;45398;-81
2022/01/16 04:20:36;;;;;;;;;47.75;40.50;;;;;1.34;82.10;102232.78;5034449;28;46117;-81
2022/01/16 04:23:03;;;;;;;;;52.25;44.00;;;;;1.42;82.16;102246.38;5002729;28;45370;-81
2022/01/16 04:25:29;;;;;;;;;56.75;46.50;;;;;1.23;81.71;102210.59;5002516;28;45382;-81
2022/01/16 04:27:54;;;;;;;;;60.50;49.00;;;;;1.30;81.51;102250.44;5002523;28;45374;-80
2022/01/16 04:30:20;;;;;;;;;52.00;43.75;;;;;1.18;81.80;102232.69;5001199;28;45798;-81
2022/01/16 04:32:45;;;;;;;;;56.50;48.25;;;;;0.99;81.96;102202.19;5002448;28;45444;-82
2022/01/16 04:35:11;;;;;;;;;57.00;45.50;;;;;1.06;82.24;102223.69;5001149;28;45149;-82
2022/01/16 04:37:36;;;;;;;;;56.75;46.75;;;;;1.00;82.15;102241.41;5001110;28;45250;-82
2022/01/16 04:40:04;;;;;;;;;56.75;44.50;;;;;1.07;82.24;102249.78;5002258;28;45247;-80
2022/01/16 04:45:14;;;;;;;;;47.50;41.50;;;;;1.01;82.54;102250.09;5002216;28;45300;-80
2022/01/16 04:47:41;;;;;;;;;58.00;48.25;;;;;0.92;82.69;102263.59;5002221;28;45466;-80
2022/01/16 04:50:07;;;;;;;;;50.50;43.50;;;;;0.81;82.21;102248.44;5002311;28;45540;-81
2022/01/16 04:52:32;;;;;;;;;59.25;46.50;;;;;0.87;82.96;102266.47;4984279;28;47500;-80
2022/01/16 04:54:58;;;;;;;;;57.00;47.25;;;;;0.92;82.66;102269.72;5001955;28;45371;-81
2022/01/16 04:57:23;;;;;;;;;55.25;42.00;;;;;0.78;83.17;102243.34;4984413;28;45464;-80
2022/01/16 04:59:48;;;;;;;;;48.25;42.75;;;;;0.94;83.37;102274.88;5002069;28;45428;-81
2022/01/16 05:02:14;;;;;;;;;56.00;44.75;;;;;0.87;82.97;102272.53;4984353;28;48163;-81
2022/01/16 05:04:39;;;;;;;;;59.75;48.25;;;;;0.95;83.51;102273.94;4984310;28;45433;-81
2022/01/16 05:07:06;;;;;;;;;59.75;48.25;;;;;0.96;83.79;102265.19;5001998;28;45189;-81
2022/01/16 05:09:31;;;;;;;;;57.00;47.25;;;;;0.98;83.56;102263.31;5001930;28;45432;-79
2022/01/16 05:11:58;;;;;;;;;55.50;46.00;;;;;0.90;83.52;102240.16;5001697;28;45310;-79
2022/01/16 05:17:08;;;;;;;;;57.00;45.00;;;;;0.98;83.77;102252.84;5001699;28;45507;-80
2022/01/16 05:19:33;;;;;;;;;55.75;47.00;;;;;1.09;83.31;102282.00;4981928;28;45226;-81
2022/01/16 05:21:59;;;;;;;;;58.50;47.50;;;;;1.07;84.11;102268.13;4980785;28;47017;-81
2022/01/16 05:24:30;;;;;;;;;57.75;44.75;;;;;1.02;84.50;102258.78;4982044;28;45196;-81
2022/01/16 05:26:56;;;;;;;;;51.50;43.75;;;;;1.07;83.47;102278.59;4980571;28;45278;-81
2022/01/16 05:29:21;;;;;;;;;59.25;46.00;;;;;1.07;83.84;102277.75;4980375;28;45333;-80
2022/01/16 05:31:47;;;;;;;;;56.25;46.75;;;;;1.03;84.10;102279.69;4981895;28;45454;-81
2022/01/16 05:34:17;;;;;;;;;55.75;47.25;;;;;1.10;83.92;102303.78;4996879;28;45401;-81
2022/01/16 05:36:42;;;;;;;;;49.50;43.75;;;;;1.07;84.17;102296.06;4981861;28;45349;-80
2022/01/16 05:39:08;;;;;;;;;56.50;45.50;;;;;0.96;83.93;102283.50;4996616;28;46244;-81
2022/01/16 05:41:33;;;;;;;;;58.50;47.00;;;;;0.91;84.10;102290.72;4981493;28;46675;-82
2022/01/16 05:43:58;;;;;;;;;57.75;47.25;;;;;1.00;83.63;102314.72;4996681;28;45993;-81
2022/01/16 05:46:24;;;;;;;;;59.00;48.75;;;;;0.85;83.89;102292.72;4981943;28;45853;-80
2022/01/16 05:48:50;;;;;;;;;53.75;44.25;;;;;1.00;84.15;102321.72;4996539;28;47250;-80
2022/01/16 05:51:16;;;;;;;;;56.50;45.75;;;;;0.82;84.04;102294.63;4981669;28;46415;-79
2022/01/16 05:53:44;;;;;;;;;59.00;47.75;;;;;0.86;84.04;102302.28;4981307;28;45257;-80
2022/01/16 05:56:10;;;;;;;;;53.50;44.25;;;;;0.82;84.32;102308.56;4981771;28;45488;-79
2022/01/16 05:58:35;;;;;;;;;52.50;43.50;;;;;0.80;83.69;102310.41;4981252;28;45393;-80
2022/01/16 06:01:00;;;;;;;;;53.75;43.75;;;;;0.92;84.33;102334.31;4996441;28;47278;-80
2022/01/16 06:03:26;;;;;;;;;61.25;48.50;;;;;0.80;83.96;102330.47;5013183;28;45356;-81
2022/01/16 06:05:51;;;;;;;;;51.25;43.00;;;;;0.86;83.76;102348.53;4981547;28;45316;-80
2022/01/16 06:08:16;;;;;;;;;55.25;43.75;;;;;0.77;83.74;102331.47;4996266;28;47413;-80
2022/01/16 06:10:42;;;;;;;;;44.25;40.25;;;;;0.37;83.97;102287.91;4981218;28;45234;-80
2022/01/16 06:13:08;;;;;;;;;47.75;40.50;;;;;0.82;83.66;102357.44;5012673;28;45304;-81
2022/01/16 06:15:34;;;;;;;;;55.00;44.00;;;;;0.82;83.94;102367.94;5012975;28;45321;-80
2022/01/16 06:18:00;;;;;;;;;45.25;39.75;;;;;0.70;84.04;102356.25;5026258;28;45829;-80
2022/01/16 06:20:26;;;;;;;;;46.50;41.00;;;;;0.82;83.81;102374.03;5019345;28;47924;-81
2022/01/16 06:22:53;;;;;;;;;48.75;41.50;;;;;0.74;83.98;102366.50;5019195;28;45469;-80
2022/01/16 06:25:19;;;;;;;;;57.50;47.25;;;;;0.79;84.16;102365.44;5019273;28;45335;-80
2022/01/16 06:27:44;;;;;;;;;58.75;45.25;;;;;0.63;83.65;102340.81;5018845;28;46100;-81
2022/01/16 06:30:11;;;;;;;;;50.50;42.25;;;;;0.75;83.77;102349.88;5018986;28;47468;-80
2022/01/16 06:32:37;;;;;;;;;55.50;44.50;;;;;0.87;84.22;102376.44;5020428;28;45335;-81
2022/01/16 06:35:07;;;;;;;;;55.00;45.50;;;;;0.75;84.33;102315.00;5020468;28;45473;-80
2022/01/16 06:37:32;;;;;;;;;49.00;40.50;;;;;0.82;84.19;102305.09;5020516;28;45380;-80
2022/01/16 06:39:57;;;;;;;;;48.75;41.75;;;;;0.73;84.23;102303.75;5020190;28;46391;-80
2022/01/16 06:42:23;;;;;;;;;60.75;45.75;;;;;0.81;83.74;102342.69;5020181;28;45308;-80
2022/01/16 06:44:48;;;;;;;;;57.75;43.75;;;;;0.76;83.78;102355.97;5020366;28;45337;-79
2022/01/16 06:47:14;;;;;;;;;54.75;44.25;;;;;0.87;83.69;102379.88;5018972;28;46985;-81
2022/01/16 06:49:39;;;;;;;;;56.75;46.50;;;;;0.82;83.90;102376.63;5018885;28;47223;-81
2022/01/16 06:52:05;;;;;;;;;49.75;41.00;;;;;0.84;83.80;102395.72;5019002;28;45450;-81
2022/01/16 06:54:30;;;;;;;;;52.50;45.00;;;;;0.87;83.69;102413.09;5020011;28;45316;-81
2022/01/16 06:56:56;;;;;;;;;59.00;45.50;;;;;0.82;83.49;102410.66;5018606;28;47048;-80
2022/01/16 06:59:21;;;;;;;;;55.75;45.50;;;;;0.75;83.54;102410.09;5018714;28;48139;-81
2022/01/16 07:01:46;;;;;;;;;54.25;44.25;;;;;0.44;83.71;102364.34;5018592;28;45538;-80
2022/01/16 07:04:12;;;;;;;;;57.75;47.00;;;;;0.78;83.92;102418.72;5018855;28;45285;-80
2022/01/16 07:06:37;;;;;;;;;50.75;42.50;;;;;0.81;84.36;102418.59;5018411;28;47149;-80
2022/01/16 07:09:03;;;;;;;;;52.50;43.00;;;;;0.62;83.94;102399.31;5019651;28;45762;-81
2022/01/16 07:11:28;;;;;;;;;55.25;47.25;;;;;0.80;83.96;102433.44;5018413;28;45849;-81
2022/01/16 07:13:53;;;;;;;;;59.25;46.25;;;;;0.66;84.35;102410.47;5019947;28;45229;-80
2022/01/16 07:16:19;;;;;;;;;60.00;47.25;;;;;0.76;83.80;102403.09;5019778;28;45513;-79
2022/01/16 07:18:44;;;;;;;;;53.25;40.50;;;;;0.74;84.27;102392.69;5006525;28;45494;-79
2022/01/16 07:21:13;;;;;;;;;60.00;46.50;;;;;0.79;84.02;102413.44;4998184;28;45148;-78
2022/01/16 07:23:43;;;;;;;;;60.00;45.75;;;;;0.86;83.91;102438.41;4998103;28;45318;-78
2022/01/16 07:26:08;;;;;;;;;56.00;48.00;;;;;0.88;83.98;102446.19;5014184;28;47204;-78
2022/01/16 07:28:34;;;;;;;;;54.75;45.25;;;;;0.91;84.34;102453.06;4999345;28;46184;-77
2022/01/16 07:30:59;;;;;;;;;54.00;44.00;;;;;0.87;84.13;102479.38;5015177;28;45338;-77
2022/01/16 07:33:25;;;;;;;;;57.00;47.00;;;;;0.75;84.80;102435.44;4999897;28;45199;-76
2022/01/16 07:35:50;;;;;;;;;54.75;44.75;;;;;0.78;84.71;102437.88;4999726;28;45694;-78
2022/01/16 07:38:15;;;;;;;;;61.25;50.00;;;;;0.91;84.31;102439.97;4999135;28;45998;-77
2022/01/16 07:40:41;;;;;;;;;58.25;45.00;;;;;0.98;84.08;102442.25;5015781;28;45186;-78
2022/01/16 07:43:07;;;;;;;;;59.25;44.00;;;;;0.92;84.27;102431.19;4999948;28;45266;-85
2022/01/16 07:45:33;;;;;;;;;58.00;47.75;;;;;1.00;84.29;102439.56;4999902;28;45473;-85
2022/01/16 07:47:58;;;;;;;;;59.75;46.50;;;;;1.00;84.23;102444.78;5014853;28;48569;-83
2022/01/16 07:50:24;;;;;;;;;49.25;43.25;;;;;0.83;84.49;102406.25;4999635;28;45190;-82
2022/01/16 07:52:49;;;;;;;;;59.25;46.25;;;;;1.06;84.23;102449.75;4998366;28;45421;-84
2022/01/16 07:55:15;;;;;;;;;54.75;47.00;;;;;1.08;84.11;102461.00;4999385;28;45344;-83
2022/01/16 07:57:41;;;;;;;;;60.25;47.75;;;;;1.05;84.42;102457.69;5015292;28;47363;-83
2022/01/16 08:00:07;;;;;;;;;54.25;44.25;;;;;1.02;85.05;102429.88;4999539;28;45325;-84
2022/01/16 08:02:32;;;;;;;;;61.25;48.25;;;;;0.91;84.85;102412.03;4999693;28;45332;-84
2022/01/16 08:04:58;;;;;;;;;59.25;47.75;;;;;0.97;84.72;102423.97;5031348;28;47028;-85
2022/01/16 08:07:23;;;;;;;;;56.00;45.25;;;;;0.95;84.66;102426.66;4997799;28;47235;-82
2022/01/16 08:09:48;;;;;;;;;50.50;41.25;;;;;0.96;84.36;102427.53;4999482;28;45469;-84
2022/01/16 08:12:14;;;;;;;;;43.75;36.50;;;;;1.06;84.55;102454.13;5031256;28;45368;-84
2022/01/16 08:14:40;;;;;;;;;58.25;47.25;;;;;1.06;84.84;102464.63;4999555;28;45382;-83
2022/01/16 08:17:05;;;;;;;;;50.50;41.25;;;;;0.96;85.16;102443.25;5015041;28;47329;-79
2022/01/16 08:19:31;;;;;;;;;49.50;43.50;;;;;1.00;85.28;102439.56;5007659;28;45214;-79
2022/01/16 08:21:57;;;;;;;;;48.00;41.50;;;;;1.14;84.70;102454.66;4999428;28;45202;-81
2022/01/16 08:24:25;;;;;;;;;57.50;44.25;;;;;0.93;84.73;102418.03;4994796;28;47361;-85
2022/01/16 08:26:51;;;;;;;;;56.00;42.25;;;;;1.25;84.93;102469.88;5000241;28;45437;-84
2022/01/16 08:29:18;;;;;;;;;50.25;41.25;;;;;1.24;85.11;102470.78;4999989;28;45317;-85
2022/01/16 08:31:47;;;;;;;;;48.75;42.50;;;;;1.03;85.36;102439.44;5014319;28;45308;-83
2022/01/16 08:34:12;;;;;;;;;53.75;43.00;;;;;1.18;85.30;102442.25;5003347;28;45765;-86
2022/01/16 08:36:37;;;;;;;;;55.00;44.25;;;;;1.26;84.54;102450.63;5036803;28;48157;-86
2022/01/16 08:39:03;;;;;;;;;56.75;45.75;;;;;1.33;85.41;102459.91;5007315;28;45275;-82
2022/01/16 08:41:29;;;;;;;;;56.25;46.00;;;;;1.32;85.41;102454.72;5013928;28;45242;-82
2022/01/16 08:43:54;;;;;;;;;52.25;41.75;;;;;1.28;84.79;102435.66;4999939;28;45717;-80
2022/01/16 08:46:22;;;;;;;;;55.50;45.00;;;;;1.38;85.13;102450.03;5031422;28;47362;-87
2022/01/16 08:48:49;;;;;;;;;42.50;39.50;;;;;1.36;84.91;102443.19;4998372;28;45461;-87
2022/01/16 08:51:14;;;;;;;;;43.25;37.75;;;;;1.28;84.87;102435.66;5003657;28;45323;-85
2022/01/16 08:53:40;;;;;;;;;58.25;45.50;;;;;1.43;84.29;102457.69;5004570;28;45323;-85
2022/01/16 08:56:06;;;;;;;;;51.25;39.75;;;;;1.56;84.46;102478.09;5004721;28;46441;-85
2022/01/16 08:58:31;;;;;;;;;48.50;41.00;;;;;1.57;84.35;102479.78;5029764;28;45729;-85
2022/01/16 09:00:57;;;;;;;;;52.25;43.50;;;;;1.51;84.44;102480.94;5004405;28;45245;-85
2022/01/16 09:03:23;;;;;;;;;53.50;43.50;;;;;1.40;84.26;102459.63;5020371;28;45974;-80
2022/01/16 09:05:50;;;;;;;;;55.00;41.50;;;;;1.51;84.73;102473.91;5041576;28;46997;-79
2022/01/16 09:08:17;;;;;;;;;45.50;40.00;;;;;1.57;84.13;102474.53;5021518;28;45347;-80
2022/01/16 09:10:43;;;;;;;;;42.75;38.00;;;;;1.53;84.96;102463.38;5021468;28;45556;-78
2022/01/16 09:13:15;;;;;;;;;50.00;40.50;;;;;1.69;85.08;102471.34;5036396;28;47480;-77
2022/01/16 09:15:45;;;;;;;;;46.50;38.25;;;;;1.67;84.80;102481.03;5036628;28;48218;-79
2022/01/16 09:18:11;;;;;;;;;46.50;40.50;;;;;1.74;84.37;102497.34;5020966;28;45237;-80
2022/01/16 09:20:37;;;;;;;;;42.75;39.25;;;;;1.70;84.48;102493.16;5021610;28;45253;-81
2022/01/16 09:23:03;;;;;;;;;41.75;36.75;;;;;1.64;84.74;102499.53;5020011;28;47248;-80
2022/01/16 09:25:28;;;;;;;;;44.00;40.00;;;;;1.58;85.10;102487.56;5019914;28;48225;-82
2022/01/16 09:27:54;;;;;;;;;40.00;36.25;;;;;1.69;84.71;102501.94;5019828;28;45299;-79
2022/01/16 09:30:21;;;;;;;;;40.75;37.50;;;;;1.65;84.86;102493.41;5020172;28;45313;-80
2022/01/16 09:32:47;;;;;;;;;38.75;33.00;;;;;1.70;84.97;102498.41;5004467;28;45424;-80
2022/01/16 09:35:13;;;;;;;;;44.00;36.50;;;;;1.81;85.76;102513.63;5002410;28;46129;-84
2022/01/16 09:37:38;;;;;;;;;36.50;33.00;;;;;1.83;84.63;102496.06;5001526;28;45540;-80
2022/01/16 09:40:06;;;;;;;;;35.25;29.75;;;;;1.84;85.09;102489.88;5006398;28;45376;-78
2022/01/16 09:42:32;;;;;;;;;32.00;28.25;;;;;1.85;84.90;102484.56;5003450;28;45802;-81
2022/01/16 09:44:58;;;;;;;;;37.50;32.50;;;;;2.09;85.56;102507.03;5000651;28;45276;-80
2022/01/16 09:47:23;;;;;;;;;30.75;29.00;;;;;2.16;85.73;102507.63;5000952;28;45696;-80
2022/01/16 09:49:48;;;;;;;;;29.00;28.25;;;;;2.25;85.49;102508.00;5001539;28;45238;-79
2022/01/16 09:52:14;;;;;;;;;45.75;36.00;;;;;2.25;85.73;102501.91;5001044;28;45514;-81
2022/01/16 09:54:39;;;;;;;;;29.25;29.25;;;;;2.26;85.41;102496.59;5016195;28;47137;-79
2022/01/16 09:57:06;;;;;;;;;31.75;28.75;;;;;2.38;85.47;102521.38;5016933;28;45337;-79
2022/01/16 09:59:31;;;;;;;;;36.75;33.50;;;;;2.27;84.60;102498.28;5000803;28;45292;-79
2022/01/16 10:01:57;;;;;;;;;40.75;35.25;;;;;2.42;84.71;102508.94;5001017;28;45335;-80
2022/01/16 10:04:42;;;;;;;;;39.25;31.25;;;;;2.57;85.48;102536.19;5032501;28;47118;-78
2022/01/16 10:07:11;;;;;;;;;38.50;29.25;;;;;2.45;84.66;102507.97;5010432;28;45375;-88
2022/01/16 10:09:39;;;;;;;;;37.75;34.75;;;;;2.62;84.44;102542.09;5025580;28;45682;-79
2022/01/16 10:12:14;;;;;;;;;30.75;28.25;;;;;2.41;84.88;102496.75;5015869;28;46412;-79
2022/01/16 10:14:47;;;;;;;;;37.25;30.75;;;;;2.36;85.30;102467.25;5015980;28;47097;-81
2022/01/16 10:17:18;;;;;;;;;36.50;30.75;;;;;2.46;84.58;102483.41;5017026;28;45163;-82
2022/01/16 10:19:44;;;;;;;;;37.00;32.75;;;;;2.75;85.37;102525.69;5021232;28;45251;-82
2022/01/16 10:22:15;;;;;;;;;36.00;34.25;;;;;2.61;85.68;102498.34;5020542;28;45373;-82
2022/01/16 10:24:42;;;;;;;;;42.25;36.25;;;;;2.80;84.68;102531.56;5008959;28;47059;-83
2022/01/16 10:27:07;;;;;;;;;33.00;30.25;;;;;2.74;84.99;102521.38;5009978;28;45286;-82
2022/01/16 10:29:36;;;;;;;;;31.25;26.50;;;;;2.75;84.96;102526.53;5000589;28;45308;-81
2022/01/16 10:32:27;;;;;;;;;38.00;30.75;;;;;2.89;86.08;102533.72;5002959;28;45347;-82
2022/01/16 10:35:17;;;;;;;;;45.00;33.25;;;;;2.99;85.51;102512.25;5000206;28;46068;-84
2022/01/16 10:37:51;;;;;;;;;40.75;36.50;;;;;3.20;85.55;102520.75;5033021;28;45998;-85
2022/01/16 10:40:18;;;;;;;;;32.00;29.25;;;;;3.25;85.85;102504.72;5042155;28;45391;-84
2022/01/16 10:42:55;;;;;;;;;33.50;29.75;;;;;3.46;84.53;102534.28;5013658;28;45323;-84
2022/01/16 10:45:26;;;;;;;;;44.50;37.50;;;;;3.38;84.23;102521.53;5019848;28;46017;-83
2022/01/16 10:47:54;;;;;;;;;30.00;28.00;;;;;3.49;83.68;102528.00;5010617;28;45443;-81
2022/01/16 10:50:31;;;;;;;;;37.50;34.50;;;;;3.44;83.93;102527.41;4999370;28;45331;-84
2022/01/16 10:53:15;;;;;;;;;34.50;31.25;;;;;3.47;83.68;102529.88;5000493;28;45325;-78
2022/01/16 10:55:51;;;;;;;;;39.25;32.75;;;;;3.63;84.38;102546.53;5000107;28;46153;-81
2022/01/16 10:58:25;;;;;;;;;31.25;29.00;;;;;3.64;83.65;102540.31;5000121;28;45412;-83
2022/01/16 11:01:05;;;;;;;;;33.25;30.75;;;;;3.52;83.62;102510.28;5015694;28;45422;-82
2022/01/16 11:03:44;;;;;;;;;34.25;30.25;;;;;3.59;83.52;102512.56;5015821;28;45653;-83
2022/01/16 11:06:09;;;;;;;;;35.25;32.00;;;;;3.66;83.75;102517.41;5000581;28;45339;-82
2022/01/16 11:08:36;;;;;;;;;31.25;26.75;;;;;3.77;83.80;102523.88;5000001;28;45344;-84
2022/01/16 11:11:01;;;;;;;;;29.25;26.00;;;;;3.66;83.27;102508.69;5015623;28;45365;-84
2022/01/16 11:13:34;;;;;;;;;29.25;27.75;;;;;3.40;83.45;102456.59;4999358;28;45262;-82
2022/01/16 11:16:10;;;;;;;;;27.75;24.75;;;;;3.72;82.34;102524.13;5014948;28;47250;-79
2022/01/16 11:18:38;;;;;;;;;26.25;25.00;;;;;3.66;83.00;102517.41;4999874;28;45357;-84
2022/01/16 11:26:24;;;;;;;;;65.50;54.50;;;;;3.83;82.85;102523.50;4968802;28;45483;-81
2022/01/16 11:28:53;;;;;;;;;53.75;43.50;;;;;3.77;83.18;102505.47;4999995;28;45431;-84
2022/01/16 11:31:19;;;;;;;;;36.75;34.25;;;;;3.43;83.02;102438.94;4999970;28;45334;-81
2022/01/16 11:33:45;;;;;;;;;49.00;42.50;;;;;3.95;82.69;102500.91;4981855;28;47064;-80
2022/01/16 11:36:14;;;;;;;;;54.75;42.50;;;;;3.84;82.14;102483.13;4982023;28;47327;-81
2022/01/16 11:38:44;;;;;;;;;57.00;46.75;;;;;3.95;83.20;102485.13;4999701;28;45561;-83
2022/01/16 11:41:19;;;;;;;;;60.75;50.25;;;;;3.97;82.79;102467.47;4999871;28;45227;-80
2022/01/16 11:43:47;;;;;;;;;44.25;37.00;;;;;4.17;82.54;102494.44;4982087;28;46115;-83
2022/01/16 11:46:18;;;;;;;;;29.75;27.50;;;;;3.91;82.86;102446.78;5000188;28;46127;-86
2022/01/16 11:48:50;;;;;;;;;35.00;34.00;;;;;4.25;82.65;102488.75;4998248;28;45372;-81
2022/01/16 11:51:40;;;;;;;;;37.50;35.25;;;;;4.33;82.00;102480.38;4985971;28;45187;-83
2022/01/16 11:54:35;;;;;;;;;44.75;34.75;;;;;4.32;81.49;102490.06;4991906;28;45413;-79
2022/01/16 11:57:04;;;;;;;;;29.50;29.00;;;;;4.38;82.21;102475.69;4988617;28;49008;-83
2022/01/16 11:59:38;;;;;;;;;33.75;32.00;;;;;4.52;82.49;102475.72;4967150;28;45720;-83
2022/01/16 12:02:17;;;;;;;;;39.50;33.75;;;;;4.66;82.08;102469.63;4969506;28;45302;-85
2022/01/16 12:04:51;;;;;;;;;46.25;38.25;;;;;4.84;81.72;102487.91;4989435;28;45460;-82